createdAt,value
2023-03-21T00:36:07.101Z,7.9
2023-03-21T00:37:11.325Z,7.9
2023-03-21T00:38:14.129Z,7.9
2023-03-21T00:39:18.146Z,8
2023-03-21T00:40:49.577Z,8
2023-03-21T00:41:53.659Z,7.9
2023-03-21T00:42:56.947Z,7.9
2023-03-21T00:43:59.719Z,7.9
2023-03-21T00:45:02.900Z,7.9
2023-03-21T00:46:05.441Z,7.9
2023-03-21T00:47:10.312Z,7.8
2023-03-21T00:48:14.263Z,7.8
2023-03-21T00:49:18.097Z,7.8
2023-03-21T00:50:22.241Z,7.8
2023-03-21T00:51:25.261Z,7.8
2023-03-21T00:52:42.366Z,7.8
2023-03-21T00:53:45.731Z,7.9
2023-03-21T00:54:49.118Z,7.9
2023-03-21T00:55:52.132Z,7.9
2023-03-21T00:56:55.202Z,7.9
2023-03-21T00:58:04.008Z,7.9
2023-03-21T00:59:07.461Z,7.9
2023-03-21T01:00:10.295Z,7.9
2023-03-21T01:01:13.886Z,7.9
2023-03-21T01:02:17.711Z,7.9
2023-03-21T01:03:26.927Z,7.8
2023-03-21T01:04:30.023Z,7.8
2023-03-21T01:05:33.853Z,7.8
2023-03-21T01:06:36.948Z,7.9
2023-03-21T01:07:40.282Z,7.9
2023-03-21T01:08:54.867Z,7.9
2023-03-21T01:09:58.209Z,7.9
2023-03-21T01:11:00.799Z,7.9
2023-03-21T01:12:03.428Z,7.9
2023-03-21T01:13:06.239Z,7.9
2023-03-21T01:14:24.781Z,7.9
2023-03-21T01:15:28.082Z,7.8
2023-03-21T01:16:32.457Z,7.9
2023-03-21T01:17:35.907Z,7.9
2023-03-21T01:18:39.324Z,7.9
2023-03-21T01:19:54.081Z,7.9
2023-03-21T01:20:57.891Z,7.9
2023-03-21T01:22:01.097Z,7.9
2023-03-21T01:23:04.166Z,7.9
2023-03-21T01:24:07.237Z,7.9
2023-03-21T01:25:24.556Z,7.9
2023-03-21T01:26:27.380Z,7.9
2023-03-21T01:27:31.384Z,7.9
2023-03-21T01:28:34.215Z,7.9
2023-03-21T01:29:37.367Z,7.9
2023-03-21T01:30:43.424Z,7.9
2023-03-21T01:31:47.342Z,7.9
2023-03-21T01:32:50.310Z,7.9
2023-03-21T01:33:52.766Z,7.9
2023-03-21T01:34:55.908Z,7.9
2023-03-21T01:36:16.603Z,7.9
2023-03-21T01:37:26.170Z,7.9
2023-03-21T01:38:29.955Z,7.9
2023-03-21T01:39:32.759Z,7.9
2023-03-21T01:40:35.550Z,8
2023-03-21T01:41:46.249Z,8
2023-03-21T01:42:48.724Z,8
2023-03-21T01:43:51.243Z,8
2023-03-21T01:44:54.683Z,7.9
2023-03-21T01:45:58.709Z,7.9
2023-03-21T01:47:14.119Z,7.9
2023-03-21T01:48:18.270Z,7.9
2023-03-21T01:49:21.864Z,7.9
2023-03-21T01:50:24.932Z,7.9
2023-03-21T01:51:28.635Z,7.9
2023-03-21T01:52:40.602Z,7.9
2023-03-21T01:53:43.613Z,7.9
2023-03-21T01:54:46.791Z,7.9
2023-03-21T01:55:50.246Z,7.9
2023-03-21T01:56:52.986Z,7.9
2023-03-21T01:58:08.738Z,7.9
2023-03-21T01:59:11.817Z,7.9
2023-03-21T02:00:14.987Z,7.9
2023-03-21T02:01:17.947Z,7.9
2023-03-21T02:02:21.439Z,7.9
2023-03-21T02:03:37.768Z,7.9
2023-03-21T02:04:41.464Z,7.9
2023-03-21T02:05:44.240Z,7.9
2023-03-21T02:06:47.619Z,7.9
2023-03-21T02:07:50.819Z,7.9
2023-03-21T02:08:54.273Z,7.9
2023-03-21T02:09:56.804Z,8
2023-03-21T02:10:59.817Z,7.9
2023-03-21T02:12:03.522Z,7.9
2023-03-21T02:13:06.372Z,7.9
2023-03-21T02:14:29.477Z,7.9
2023-03-21T02:15:32.737Z,7.9
2023-03-21T02:16:36.759Z,7.8
2023-03-21T02:17:39.700Z,7.9
2023-03-21T02:18:43.327Z,7.9
2023-03-21T02:19:55.387Z,7.9
2023-03-21T02:20:58.803Z,7.9
2023-03-21T02:22:02.842Z,7.9
2023-03-21T02:23:06.437Z,7.8
2023-03-21T02:24:08.894Z,7.8
2023-03-21T02:25:23.763Z,7.8
2023-03-21T02:26:58.023Z,7.8
2023-03-21T02:28:07.752Z,7.8
2023-03-21T02:29:10.904Z,7.8
2023-03-21T02:30:52.628Z,7.8
2023-03-21T02:32:38.414Z,7.8
2023-03-21T02:33:42.269Z,7.8
2023-03-21T02:34:45.879Z,7.8
2023-03-21T02:36:15.169Z,7.8
2023-03-21T02:37:38.266Z,7.7
2023-03-21T02:38:45.179Z,7.8
2023-03-21T02:39:48.260Z,7.8
2023-03-21T02:40:51.043Z,7.8
2023-03-21T02:41:53.343Z,7.8
2023-03-21T02:43:09.241Z,7.8
2023-03-21T02:44:26.941Z,7.8
2023-03-21T02:45:30.014Z,7.7
2023-03-21T02:47:07.165Z,7.7
2023-03-21T02:48:51.323Z,7.7
2023-03-21T02:49:54.684Z,7.7
2023-03-21T02:50:58.708Z,7.7
2023-03-21T02:52:40.196Z,7.7
2023-03-21T02:53:44.416Z,7.7
2023-03-21T02:54:50.315Z,7.7
2023-03-21T02:55:53.652Z,7.7
2023-03-21T02:56:56.428Z,7.8
2023-03-21T02:58:14.570Z,7.8
2023-03-21T02:59:17.320Z,7.8
2023-03-21T03:00:19.870Z,7.8
2023-03-21T03:01:23.137Z,7.8
2023-03-21T03:02:25.964Z,7.8
2023-03-21T03:03:36.265Z,7.8
2023-03-21T03:04:39.216Z,7.8
2023-03-21T03:05:42.413Z,7.8
2023-03-21T03:06:45.140Z,7.9
2023-03-21T03:07:48.198Z,7.9
2023-03-21T03:09:04.695Z,7.9
2023-03-21T03:10:08.788Z,7.9
2023-03-21T03:11:11.530Z,7.9
2023-03-21T03:12:14.575Z,7.9
2023-03-21T03:13:17.718Z,7.9
2023-03-21T03:15:05.105Z,7.9
2023-03-21T03:16:08.136Z,7.9
2023-03-21T03:17:10.437Z,7.9
2023-03-21T03:18:13.149Z,7.9
2023-03-21T03:19:15.960Z,7.9
2023-03-21T03:20:19.091Z,7.8
2023-03-21T03:21:22.301Z,7.8
2023-03-21T03:22:25.699Z,7.8
2023-03-21T03:23:29.730Z,7.8
2023-03-21T03:24:33.336Z,7.7
2023-03-21T03:25:44.964Z,7.8
2023-03-21T03:26:48.642Z,7.7
2023-03-21T03:27:52.385Z,7.8
2023-03-21T03:28:55.170Z,7.7
2023-03-21T03:29:58.284Z,7.7
2023-03-21T03:31:14.023Z,7.7
2023-03-21T03:32:17.970Z,7.7
2023-03-21T03:33:21.006Z,7.7
2023-03-21T03:34:24.025Z,7.7
2023-03-21T03:35:27.444Z,7.7
2023-03-21T03:36:35.206Z,7.8
2023-03-21T03:37:38.457Z,7.8
2023-03-21T03:38:41.596Z,7.7
2023-03-21T03:39:45.379Z,7.7
2023-03-21T03:40:49.522Z,7.6
2023-03-21T03:42:29.758Z,7.6
2023-03-21T03:43:32.778Z,7.6
2023-03-21T03:44:36.405Z,7.6
2023-03-21T03:45:39.346Z,7.6
2023-03-21T03:46:42.352Z,7.6
2023-03-21T03:47:59.296Z,7.5
2023-03-21T03:49:02.818Z,7.5
2023-03-21T03:50:06.557Z,7.5
2023-03-21T03:51:09.122Z,7.5
2023-03-21T03:52:12.200Z,7.5
2023-03-21T03:53:20.136Z,7.5
2023-03-21T03:54:23.199Z,7.5
2023-03-21T03:55:26.890Z,7.5
2023-03-21T03:56:31.030Z,7.5
2023-03-21T03:57:34.395Z,7.4
2023-03-21T03:58:47.670Z,7.4
2023-03-21T03:59:51.246Z,7.3
2023-03-21T04:00:54.271Z,7.3
2023-03-21T04:01:57.353Z,7.3
2023-03-21T04:03:01.539Z,7.4
2023-03-21T04:04:14.920Z,7.3
2023-03-21T04:05:17.556Z,7.4
2023-03-21T04:06:20.156Z,7.3
2023-03-21T04:07:23.881Z,7.3
2023-03-21T04:08:27.062Z,7.4
2023-03-21T04:09:46.659Z,7.4
2023-03-21T04:10:50.124Z,7.3
2023-03-21T04:11:53.688Z,7.4
2023-03-21T04:12:57.059Z,7.4
2023-03-21T04:13:59.506Z,7.4
2023-03-21T04:15:12.588Z,7.4
2023-03-21T04:16:16.146Z,7.5
2023-03-21T04:17:19.063Z,7.5
2023-03-21T04:18:21.778Z,7.5
2023-03-21T04:19:24.092Z,7.5
2023-03-21T04:20:38.798Z,7.5
2023-03-21T04:21:42.244Z,7.5
2023-03-21T04:22:45.609Z,7.5
2023-03-21T04:23:48.568Z,7.5
2023-03-21T04:24:51.635Z,7.5
2023-03-21T04:25:59.134Z,7.5
2023-03-21T04:27:03.172Z,7.4
2023-03-21T04:28:06.446Z,7.4
2023-03-21T04:29:09.582Z,7.4
2023-03-21T04:30:12.935Z,7.4
2023-03-21T04:31:28.044Z,7.5
2023-03-21T04:32:31.526Z,7.4
2023-03-21T04:33:34.494Z,7.4
2023-03-21T04:34:37.465Z,7.4
2023-03-21T04:35:40.604Z,7.4
2023-03-21T04:36:44.093Z,7.3
2023-03-21T04:37:47.234Z,7.3
2023-03-21T04:38:50.301Z,7.4
2023-03-21T04:39:53.449Z,7.4
2023-03-21T04:40:56.601Z,7.4
2023-03-21T04:41:59.647Z,7.4
2023-03-21T04:43:03.135Z,7.4
2023-03-21T04:44:06.203Z,7.4
2023-03-21T04:45:08.658Z,7.3
2023-03-21T04:46:11.936Z,7.3
2023-03-21T04:47:14.728Z,7.4
2023-03-21T04:48:17.795Z,7.4
2023-03-21T04:49:20.869Z,7.4
2023-03-21T04:50:24.509Z,7.4
2023-03-21T04:51:27.656Z,7.3
2023-03-21T04:52:30.762Z,7.3
2023-03-21T04:53:34.213Z,7.4
2023-03-21T04:54:37.569Z,7.4
2023-03-21T04:55:40.787Z,7.4
2023-03-21T04:56:43.630Z,7.3
2023-03-21T04:57:46.959Z,7.3
2023-03-21T04:58:50.463Z,7.3
2023-03-21T04:59:53.247Z,7.3
2023-03-21T05:00:57.113Z,7.4
2023-03-21T05:01:59.847Z,7.4
2023-03-21T05:03:02.940Z,7.4
2023-03-21T05:04:06.287Z,7.4
2023-03-21T05:05:09.308Z,7.4
2023-03-21T05:06:12.435Z,7.3
2023-03-21T05:07:15.847Z,7.3
2023-03-21T05:08:19.123Z,7.4
2023-03-21T05:09:22.988Z,7.4
2023-03-21T05:10:25.710Z,7.4
2023-03-21T05:11:29.056Z,7.4
2023-03-21T05:12:32.336Z,7.4
2023-03-21T05:13:35.143Z,7.4
2023-03-21T05:14:38.593Z,7.4
2023-03-21T05:15:41.647Z,7.4
2023-03-21T05:16:45.818Z,7.4
2023-03-21T05:17:48.699Z,7.4
2023-03-21T05:18:51.207Z,7.4
2023-03-21T05:19:54.368Z,7.4
2023-03-21T05:20:57.452Z,7.5
2023-03-21T05:22:00.452Z,7.5
2023-03-21T05:23:03.864Z,7.5
2023-03-21T05:24:07.025Z,7.5
2023-03-21T05:25:10.414Z,7.5
2023-03-21T05:26:13.198Z,7.5
2023-03-21T05:27:16.321Z,7.5
2023-03-21T05:28:20.098Z,7.5
2023-03-21T05:29:23.572Z,7.5
2023-03-21T05:30:26.824Z,7.4
2023-03-21T05:31:30.614Z,7.4
2023-03-21T05:32:33.548Z,7.4
2023-03-21T05:33:36.615Z,7.4
2023-03-21T05:34:39.899Z,7.4
2023-03-21T05:35:43.097Z,7.4
2023-03-21T05:36:46.622Z,7.5
2023-03-21T05:37:49.996Z,7.4
2023-03-21T05:38:52.713Z,7.5
2023-03-21T05:39:55.430Z,7.5
2023-03-21T05:40:59.580Z,7.5
2023-03-21T05:42:02.808Z,7.5
2023-03-21T05:43:06.213Z,7.5
2023-03-21T05:44:09.921Z,7.5
2023-03-21T05:45:13.409Z,7.5
2023-03-21T05:46:17.174Z,7.5
2023-03-21T05:47:20.752Z,7.5
2023-03-21T05:48:23.698Z,7.6
2023-03-21T05:49:27.069Z,7.6
2023-03-21T05:50:30.440Z,7.6
2023-03-21T05:51:33.231Z,7.6
2023-03-21T05:52:35.676Z,7.6
2023-03-21T05:53:38.214Z,7.6
2023-03-21T05:54:40.980Z,7.6
2023-03-21T05:55:43.788Z,7.6
2023-03-21T05:56:47.418Z,7.6
2023-03-21T05:57:50.456Z,7.6
2023-03-21T05:58:53.307Z,7.6
2023-03-21T05:59:57.011Z,7.7
2023-03-21T06:00:59.933Z,7.7
2023-03-21T06:02:03.637Z,7.7
2023-03-21T06:03:07.358Z,7.7
2023-03-21T06:04:10.184Z,7.7
2023-03-21T06:05:12.732Z,7.7
2023-03-21T06:06:15.514Z,7.7
2023-03-21T06:07:18.258Z,7.6
2023-03-21T06:08:21.362Z,7.7
2023-03-21T06:09:24.397Z,7.7
2023-03-21T06:10:28.116Z,7.7
2023-03-21T06:11:31.269Z,7.7
2023-03-21T06:12:34.334Z,7.7
2023-03-21T06:13:37.431Z,7.7
2023-03-21T06:14:40.535Z,7.7
2023-03-21T06:15:44.560Z,7.7
2023-03-21T06:16:47.339Z,7.7
2023-03-21T06:17:51.384Z,7.7
2023-03-21T06:18:54.804Z,7.7
2023-03-21T06:19:58.205Z,7.8
2023-03-21T06:21:01.376Z,7.8
2023-03-21T06:22:03.843Z,7.8
2023-03-21T06:23:06.663Z,7.8
2023-03-21T06:24:09.645Z,7.8
2023-03-21T06:25:13.120Z,7.8
2023-03-21T06:26:16.568Z,7.8
2023-03-21T06:27:20.199Z,7.8
2023-03-21T06:28:22.651Z,7.8
2023-03-21T06:29:26.003Z,7.8
2023-03-21T06:30:28.728Z,7.9
2023-03-21T06:31:32.374Z,7.9
2023-03-21T06:32:35.780Z,7.9
2023-03-21T06:33:39.252Z,7.9
2023-03-21T06:34:42.099Z,7.9
2023-03-21T06:35:46.001Z,7.8
2023-03-21T06:36:49.040Z,7.8
2023-03-21T06:37:51.898Z,7.8
2023-03-21T06:38:54.967Z,7.8
2023-03-21T06:39:58.073Z,7.7
2023-03-21T06:41:00.654Z,7.7
2023-03-21T06:42:03.503Z,7.7
2023-03-21T06:43:06.664Z,7.7
2023-03-21T06:44:09.389Z,7.7
2023-03-21T06:45:12.502Z,7.7
2023-03-21T06:46:15.571Z,7.7
2023-03-21T06:47:19.002Z,7.8
2023-03-21T06:48:23.055Z,7.8
2023-03-21T06:49:26.961Z,7.8
2023-03-21T06:50:29.801Z,7.8
2023-03-21T06:51:33.540Z,7.9
2023-03-21T06:52:37.260Z,7.9
2023-03-21T06:53:40.129Z,7.9
2023-03-21T06:54:43.767Z,7.9
2023-03-21T06:55:47.464Z,7.9
2023-03-21T06:56:51.470Z,7.9
2023-03-21T06:57:54.658Z,7.9
2023-03-21T06:58:57.486Z,8
2023-03-21T07:00:01.153Z,8
2023-03-21T07:01:04.915Z,8
2023-03-21T07:02:08.676Z,8
2023-03-21T07:03:11.623Z,7.9
2023-03-21T07:04:15.619Z,7.9
2023-03-21T07:05:19.422Z,7.9
2023-03-21T07:06:22.550Z,7.9
2023-03-21T07:07:25.819Z,7.9
2023-03-21T07:08:29.683Z,7.9
2023-03-21T07:09:32.482Z,7.9
2023-03-21T07:10:35.641Z,7.9
2023-03-21T07:11:39.389Z,7.9
2023-03-21T07:12:42.558Z,7.9
2023-03-21T07:13:45.934Z,7.9
2023-03-21T07:14:49.692Z,7.9
2023-03-21T07:15:52.978Z,8
2023-03-21T07:16:56.381Z,8
2023-03-21T07:17:59.176Z,8
2023-03-21T07:19:02.586Z,7.9
2023-03-21T07:20:05.793Z,7.9
2023-03-21T07:21:09.905Z,8
2023-03-21T07:22:12.961Z,8
2023-03-21T07:23:16.783Z,8
2023-03-21T07:24:18.950Z,8
2023-03-21T07:25:22.395Z,8
2023-03-21T07:26:25.559Z,8
2023-03-21T07:27:28.351Z,8
2023-03-21T07:28:31.752Z,8
2023-03-21T07:29:34.817Z,8
2023-03-21T07:30:38.606Z,8.1
2023-03-21T07:31:42.126Z,8.1
2023-03-21T07:32:45.320Z,8.1
2023-03-21T07:33:48.465Z,8.1
2023-03-21T07:34:51.362Z,8.1
2023-03-21T07:35:54.898Z,8.1
2023-03-21T07:36:58.445Z,8.1
2023-03-21T07:38:01.575Z,8.1
2023-03-21T07:39:04.690Z,8.1
2023-03-21T07:40:08.761Z,8.1
2023-03-21T07:41:11.528Z,8.1
2023-03-21T07:42:14.639Z,8.1
2023-03-21T07:44:20.329Z,8.2
2023-03-21T07:45:23.504Z,8.2
2023-03-21T07:46:26.715Z,8.3
2023-03-21T07:47:29.728Z,8.3
2023-03-21T07:48:33.472Z,8.3
2023-03-21T07:49:37.298Z,8.3
2023-03-21T07:50:40.850Z,8.3
2023-03-21T07:51:44.263Z,8.3
2023-03-21T07:52:48.157Z,8.3
2023-03-21T07:53:51.888Z,8.3
2023-03-21T07:54:55.289Z,8.2
2023-03-21T07:55:58.571Z,8.2
2023-03-21T07:57:01.817Z,8.2
2023-03-21T07:58:04.561Z,8.3
2023-03-21T07:59:07.591Z,8.3
2023-03-21T08:00:11.017Z,8.3
2023-03-21T08:01:14.484Z,8.3
2023-03-21T08:02:18.280Z,8.2
2023-03-21T08:03:21.712Z,8.2
2023-03-21T08:04:25.112Z,8.2
2023-03-21T08:05:28.330Z,8.2
2023-03-21T08:06:32.114Z,8.3
2023-03-21T08:07:35.949Z,8.3
2023-03-21T08:08:39.803Z,8.3
2023-03-21T08:09:42.890Z,8.2
2023-03-21T08:10:46.688Z,8.2
2023-03-21T08:11:50.097Z,8.2
2023-03-21T08:12:53.480Z,8.2
2023-03-21T08:13:56.753Z,8.3
2023-03-21T08:15:02.880Z,8.3
2023-03-21T08:16:06.346Z,8.3
2023-03-21T08:17:10.239Z,8.3
2023-03-21T08:18:13.600Z,8.3
2023-03-21T08:19:16.991Z,8.3
2023-03-21T08:20:19.980Z,8.3
2023-03-21T08:21:23.704Z,8.3
2023-03-21T08:22:27.790Z,8.3
2023-03-21T08:23:31.204Z,8.4
2023-03-21T08:24:34.952Z,8.4
2023-03-21T08:25:40.110Z,8.4
2023-03-21T08:26:43.745Z,8.4
2023-03-21T08:27:47.219Z,8.4
2023-03-21T08:28:51.233Z,8.4
2023-03-21T08:29:54.708Z,8.4
2023-03-21T08:30:58.183Z,8.4
2023-03-21T08:32:01.646Z,8.4
2023-03-21T08:33:04.438Z,8.4
2023-03-21T08:34:07.701Z,8.4
2023-03-21T08:35:10.805Z,8.5
2023-03-21T08:36:14.621Z,8.5
2023-03-21T08:37:18.137Z,8.6
2023-03-21T08:38:21.745Z,8.6
2023-03-21T08:39:25.864Z,8.6
2023-03-21T08:40:30.009Z,8.6
2023-03-21T08:41:32.608Z,8.5
2023-03-21T08:42:36.031Z,8.5
2023-03-21T08:43:39.124Z,8.5
2023-03-21T08:44:42.998Z,8.6
2023-03-21T08:45:46.000Z,8.6
2023-03-21T08:46:48.887Z,8.6
2023-03-21T08:47:52.503Z,8.6
2023-03-21T08:48:54.999Z,8.6
2023-03-21T08:50:00.743Z,8.6
2023-03-21T08:51:04.421Z,8.6
2023-03-21T08:52:07.475Z,8.6
2023-03-21T08:53:11.152Z,8.7
2023-03-21T08:54:14.703Z,8.7
2023-03-21T08:55:18.124Z,8.6
2023-03-21T08:56:21.589Z,8.6
2023-03-21T08:57:24.558Z,8.6
2023-03-21T08:58:27.615Z,8.6
2023-03-21T08:59:30.305Z,8.6
2023-03-21T09:00:33.583Z,8.7
2023-03-21T09:01:37.705Z,8.6
2023-03-21T09:02:40.503Z,8.6
2023-03-21T09:03:44.296Z,8.7
2023-03-21T09:04:47.451Z,8.7
2023-03-21T09:05:50.837Z,8.7
2023-03-21T09:06:53.948Z,8.7
2023-03-21T09:07:56.984Z,8.8
2023-03-21T09:09:00.467Z,8.8
2023-03-21T09:10:24.242Z,8.8
2023-03-21T09:11:28.279Z,8.9
2023-03-21T09:12:31.348Z,8.9
2023-03-21T09:13:34.961Z,8.9
2023-03-21T09:14:38.778Z,8.9
2023-03-21T09:15:42.383Z,8.9
2023-03-21T09:16:45.877Z,8.9
2023-03-21T09:17:48.979Z,8.9
2023-03-21T09:18:52.427Z,9
2023-03-21T09:19:56.206Z,9
2023-03-21T09:20:59.569Z,9
2023-03-21T09:22:03.278Z,9.1
2023-03-21T09:23:06.372Z,9.1
2023-03-21T09:24:09.115Z,9.1
2023-03-21T09:25:12.962Z,9.1
2023-03-21T09:26:17.142Z,9.1
2023-03-21T09:27:21.414Z,9.1
2023-03-21T09:28:24.588Z,9.1
2023-03-21T09:29:27.651Z,9.1
2023-03-21T09:30:31.186Z,9.1
2023-03-21T09:31:34.583Z,9.2
2023-03-21T09:32:37.416Z,9.2
2023-03-21T09:33:40.099Z,9.2
2023-03-21T09:34:43.436Z,9.2
2023-03-21T09:35:46.704Z,9.2
2023-03-21T09:36:49.530Z,9.2
2023-03-21T09:37:52.990Z,9.2
2023-03-21T09:38:56.347Z,9.2
2023-03-21T09:40:00.201Z,9.2
2023-03-21T09:41:03.366Z,9.3
2023-03-21T09:42:07.162Z,9.3
2023-03-21T09:43:10.978Z,9.3
2023-03-21T09:44:14.672Z,9.3
2023-03-21T09:45:18.170Z,9.3
2023-03-21T09:46:22.069Z,9.2
2023-03-21T09:47:26.364Z,9.2
2023-03-21T09:48:29.853Z,9.2
2023-03-21T09:49:33.618Z,9.2
2023-03-21T09:50:36.688Z,9.2
2023-03-21T09:51:40.033Z,9.2
2023-03-21T09:52:43.050Z,9.2
2023-03-21T09:53:46.479Z,9.2
2023-03-21T09:54:49.758Z,9.2
2023-03-21T09:55:52.815Z,9.2
2023-03-21T09:56:56.162Z,9.2
2023-03-21T09:57:59.632Z,9.2
2023-03-21T09:59:03.345Z,9.3
2023-03-21T10:00:06.427Z,9.3
2023-03-21T10:01:09.755Z,9.3
2023-03-21T10:02:13.302Z,9.3
2023-03-21T10:03:16.307Z,9.3
2023-03-21T10:04:20.224Z,9.3
2023-03-21T10:05:23.783Z,9.4
2023-03-21T10:06:27.206Z,9.4
2023-03-21T10:07:30.281Z,9.4
2023-03-21T10:08:33.583Z,9.3
2023-03-21T10:09:36.786Z,9.3
2023-03-21T10:10:41.396Z,9.3
2023-03-21T10:11:44.932Z,9.3
2023-03-21T10:12:48.327Z,9.3
2023-03-21T10:13:52.045Z,9.3
2023-03-21T10:14:59.613Z,9.3
2023-03-21T10:16:03.419Z,9.3
2023-03-21T10:17:06.612Z,9.3
2023-03-21T10:18:09.998Z,9.3
2023-03-21T10:19:13.367Z,9.3
2023-03-21T10:20:17.200Z,9.4
2023-03-21T10:22:05.291Z,9.4
2023-03-21T10:23:08.397Z,9.4
2023-03-21T10:24:11.401Z,9.4
2023-03-21T10:25:14.804Z,9.4
2023-03-21T10:26:22.356Z,9.4
2023-03-21T10:27:25.560Z,9.4
2023-03-21T10:28:52.946Z,9.4
2023-03-21T10:29:56.998Z,9.5
2023-03-21T10:31:00.862Z,9.5
2023-03-21T10:32:04.207Z,9.6
2023-03-21T10:33:08.100Z,9.6
2023-03-21T10:34:11.140Z,9.6
2023-03-21T10:35:14.352Z,9.6
2023-03-21T10:36:18.382Z,9.6
2023-03-21T10:37:21.297Z,9.5
2023-03-21T10:38:24.102Z,9.5
2023-03-21T10:39:26.670Z,9.5
2023-03-21T10:40:30.163Z,9.5
2023-03-21T10:41:34.024Z,9.6
2023-03-21T10:42:37.403Z,9.6
2023-03-21T10:43:41.162Z,9.6
2023-03-21T10:44:44.132Z,9.5
2023-03-21T10:45:48.012Z,9.5
2023-03-21T10:46:53.111Z,9.5
2023-03-21T10:47:57.968Z,9.5
2023-03-21T10:49:01.831Z,9.5
2023-03-21T10:50:12.646Z,9.6
2023-03-21T10:51:16.705Z,9.6
2023-03-21T10:52:19.588Z,9.6
2023-03-21T10:53:22.654Z,9.6
2023-03-21T10:54:26.326Z,9.6
2023-03-21T10:55:29.591Z,9.6
2023-03-21T10:56:32.393Z,9.7
2023-03-21T10:57:35.507Z,9.6
2023-03-21T10:58:38.848Z,9.6
2023-03-21T10:59:42.289Z,9.6
2023-03-21T11:00:45.942Z,9.6
2023-03-21T11:01:49.397Z,9.6
2023-03-21T11:02:54.208Z,9.7
2023-03-21T11:03:58.157Z,9.7
2023-03-21T11:05:01.867Z,9.7
2023-03-21T11:06:04.652Z,9.8
2023-03-21T11:07:08.414Z,9.8
2023-03-21T11:08:12.176Z,9.8
2023-03-21T11:09:14.993Z,9.8
2023-03-21T11:10:30.316Z,9.8
2023-03-21T11:11:34.779Z,9.8
2023-03-21T11:12:38.444Z,9.8
2023-03-21T11:13:41.534Z,9.7
2023-03-21T11:14:44.743Z,9.7
2023-03-21T11:15:47.760Z,9.6
2023-03-21T11:16:51.574Z,9.7
2023-03-21T11:17:55.370Z,9.8
2023-03-21T11:18:59.167Z,9.8
2023-03-21T11:20:02.580Z,9.8
2023-03-21T11:21:06.062Z,9.8
2023-03-21T11:22:09.756Z,9.8
2023-03-21T11:23:12.305Z,9.8
2023-03-21T11:24:15.219Z,9.8
2023-03-21T11:25:18.599Z,9.8
2023-03-21T11:26:21.681Z,9.8
2023-03-21T11:27:25.025Z,9.8
2023-03-21T11:28:28.456Z,9.9
2023-03-21T11:29:31.209Z,9.9
2023-03-21T11:30:35.236Z,9.9
2023-03-21T11:31:38.161Z,9.9
2023-03-21T11:32:41.318Z,9.9
2023-03-21T11:33:44.919Z,9.9
2023-03-21T11:34:48.049Z,10
2023-03-21T11:35:51.599Z,10
2023-03-21T11:36:54.769Z,10
2023-03-21T11:37:58.325Z,10
2023-03-21T11:39:01.702Z,10.1
2023-03-21T11:40:05.412Z,10
2023-03-21T11:41:09.153Z,10.1
2023-03-21T11:42:12.229Z,10.1
2023-03-21T11:43:15.734Z,10.1
2023-03-21T11:44:19.152Z,10.2
2023-03-21T11:45:23.066Z,10.2
2023-03-21T11:46:26.765Z,10.2
2023-03-21T11:47:29.868Z,10.1
2023-03-21T11:48:32.911Z,10.1
2023-03-21T11:49:37.012Z,10.1
2023-03-21T11:50:40.492Z,10.1
2023-03-21T11:51:43.517Z,10.2
2023-03-21T11:52:46.316Z,10.2
2023-03-21T11:53:49.982Z,10.2
2023-03-21T11:54:53.661Z,10.2
2023-03-21T11:55:56.637Z,10.2
2023-03-21T11:56:59.663Z,10.2
2023-03-21T11:58:16.576Z,10.2
2023-03-21T11:59:19.857Z,10.3
2023-03-21T12:00:22.931Z,10.2
2023-03-21T12:01:25.666Z,10.2
2023-03-21T12:02:29.400Z,10.1
2023-03-21T12:03:50.440Z,10.2
2023-03-21T12:04:57.983Z,10.2
2023-03-21T12:06:02.030Z,10.2
2023-03-21T12:07:05.172Z,10.2
2023-03-21T12:08:08.312Z,10.2
2023-03-21T12:09:12.114Z,10.3
2023-03-21T12:10:16.026Z,10.3
2023-03-21T12:11:19.413Z,10.3
2023-03-21T12:12:40.790Z,10.3
2023-03-21T12:13:43.526Z,10.3
2023-03-21T12:14:46.972Z,10.3
2023-03-21T12:15:55.338Z,10.3
2023-03-21T12:16:58.559Z,10.3
2023-03-21T12:18:01.653Z,10.3
2023-03-21T12:19:05.332Z,10.3
2023-03-21T12:20:09.484Z,10.3
2023-03-21T12:21:13.338Z,10.3
2023-03-21T12:22:16.963Z,10.3
2023-03-21T12:23:20.054Z,10.4
2023-03-21T12:24:23.588Z,10.4
2023-03-21T12:25:27.074Z,10.4
2023-03-21T12:26:30.415Z,10.4
2023-03-21T12:27:34.420Z,10.4
2023-03-21T12:28:38.509Z,10.3
2023-03-21T12:29:41.377Z,10.3
2023-03-21T12:30:44.699Z,10.3
2023-03-21T12:31:48.571Z,10.3
2023-03-21T12:32:52.029Z,10.3
2023-03-21T12:33:55.972Z,10.3
2023-03-21T12:34:59.877Z,10.2
2023-03-21T12:36:04.021Z,10.1
2023-03-21T12:37:07.402Z,10.1
2023-03-21T12:38:10.956Z,10.1
2023-03-21T12:39:13.979Z,10.1
2023-03-21T12:40:16.510Z,10.1
2023-03-21T12:41:20.319Z,10.1
2023-03-21T12:42:23.689Z,10.1
2023-03-21T12:43:26.399Z,10.1
2023-03-21T12:44:29.939Z,10.1
2023-03-21T12:45:49.894Z,10.2
2023-03-21T12:46:54.929Z,10.2
2023-03-21T12:47:58.977Z,10.2
2023-03-21T12:49:03.336Z,10.2
2023-03-21T12:50:06.584Z,10.1
2023-03-21T12:51:10.704Z,10.1
2023-03-21T12:52:14.446Z,10.2
2023-03-21T12:53:17.878Z,10.2
2023-03-21T12:54:20.881Z,10.2
2023-03-21T12:55:23.992Z,10.3
2023-03-21T12:56:27.671Z,10.2
2023-03-21T12:57:31.117Z,10.1
2023-03-21T12:58:35.144Z,10.1
2023-03-21T12:59:38.240Z,10.2
2023-03-21T13:00:44.046Z,10.2
2023-03-21T13:01:46.787Z,10.2
2023-03-21T13:02:50.221Z,10.2
2023-03-21T13:03:53.880Z,10.2
2023-03-21T13:05:01.807Z,10.2
2023-03-21T13:06:05.137Z,10.3
2023-03-21T13:07:08.865Z,10.3
2023-03-21T13:08:12.844Z,10.2
2023-03-21T13:09:38.318Z,10.2
2023-03-21T13:10:42.421Z,10.2
2023-03-21T13:11:45.900Z,10.3
2023-03-21T13:12:49.007Z,10.4
2023-03-21T13:13:52.097Z,10.3
2023-03-21T13:14:55.902Z,10.4
2023-03-21T13:15:59.932Z,10.4
2023-03-21T13:17:03.504Z,10.4
2023-03-21T13:18:06.610Z,10.5
2023-03-21T13:19:09.424Z,10.5
2023-03-21T13:20:12.977Z,10.5
2023-03-21T13:21:16.680Z,10.4
2023-03-21T13:22:20.349Z,10.4
2023-03-21T13:23:24.228Z,10.4
2023-03-21T13:24:28.298Z,10.4
2023-03-21T13:25:31.010Z,10.4
2023-03-21T13:26:33.865Z,10.4
2023-03-21T13:27:37.218Z,10.4
2023-03-21T13:28:40.239Z,10.4
2023-03-21T13:29:43.711Z,10.4
2023-03-21T13:30:47.514Z,10.4
2023-03-21T13:31:58.454Z,10.4
2023-03-21T13:33:01.664Z,10.4
2023-03-21T13:34:04.765Z,10.4
2023-03-21T13:35:07.545Z,10.4
2023-03-21T13:36:11.791Z,10.4
2023-03-21T13:37:15.583Z,10.4
2023-03-21T13:38:19.222Z,10.4
2023-03-21T13:39:23.208Z,10.4
2023-03-21T13:40:26.028Z,10.4
2023-03-21T13:41:29.188Z,10.4
2023-03-21T13:42:32.257Z,10.4
2023-03-21T13:43:35.332Z,10.5
2023-03-21T13:44:38.680Z,10.4
2023-03-21T13:45:42.950Z,10.5
2023-03-21T13:46:56.499Z,10.5
2023-03-21T13:47:59.915Z,10.6
2023-03-21T13:49:03.494Z,10.5
2023-03-21T13:50:07.164Z,10.5
2023-03-21T13:51:11.253Z,10.6
2023-03-21T13:52:15.381Z,10.5
2023-03-21T13:53:19.364Z,10.5
2023-03-21T13:54:23.198Z,10.4
2023-03-21T13:55:26.509Z,10.5
2023-03-21T13:56:29.588Z,10.4
2023-03-21T13:57:33.619Z,10.4
2023-03-21T13:58:36.867Z,10.5
2023-03-21T13:59:39.826Z,10.5
2023-03-21T14:00:43.552Z,10.5
2023-03-21T14:01:46.974Z,10.4
2023-03-21T14:02:50.258Z,10.4
2023-03-21T14:05:08.698Z,10.4
2023-03-21T14:06:12.854Z,10.4
2023-03-21T14:07:16.142Z,10.4
2023-03-21T14:08:39.170Z,10.4
2023-03-21T14:09:43.196Z,10.4
2023-03-21T14:10:47.200Z,10.3
2023-03-21T14:11:50.040Z,10.3
2023-03-21T14:12:53.122Z,10.3
2023-03-21T14:13:56.577Z,10.3
2023-03-21T14:15:18.332Z,10.3
2023-03-21T14:16:21.991Z,10.2
2023-03-21T14:17:24.941Z,10.2
2023-03-21T14:18:56.911Z,10.2
2023-03-21T14:20:00.505Z,10.1
2023-03-21T14:21:24.147Z,10.1
2023-03-21T14:22:28.285Z,10
2023-03-21T14:23:32.148Z,10.1
2023-03-21T14:24:35.680Z,10.1
2023-03-21T14:25:50.773Z,10.1
2023-03-21T14:26:55.534Z,10.1
2023-03-21T14:27:59.111Z,10.1
2023-03-21T14:29:19.127Z,10.2
2023-03-21T14:30:32.468Z,10.2
2023-03-21T14:31:36.415Z,10.1
2023-03-21T14:32:39.984Z,10.1
2023-03-21T14:33:43.606Z,10.1
2023-03-21T14:34:47.000Z,10.1
2023-03-21T14:35:50.349Z,10.1
2023-03-21T14:37:00.778Z,10.1
2023-03-21T14:38:04.466Z,10.1
2023-03-21T14:39:08.304Z,10
2023-03-21T14:40:12.195Z,10
2023-03-21T14:41:16.111Z,10
2023-03-21T14:42:19.714Z,10
2023-03-21T14:43:23.148Z,10
2023-03-21T14:44:26.456Z,10.1
2023-03-21T14:45:30.135Z,10.1
2023-03-21T14:46:33.561Z,10.1
2023-03-21T14:47:37.039Z,10.1
2023-03-21T14:48:39.645Z,10.1
2023-03-21T14:49:43.379Z,10.1
2023-03-21T14:50:46.385Z,10.1
2023-03-21T14:51:49.375Z,10.1
2023-03-21T14:52:52.996Z,10.1
2023-03-21T14:53:56.410Z,10.1
2023-03-21T14:54:59.933Z,10.1
2023-03-21T14:56:03.621Z,10.1
2023-03-21T14:57:07.336Z,10.1
2023-03-21T14:58:11.270Z,10.1
2023-03-21T14:59:14.327Z,10.2
2023-03-21T15:00:17.564Z,10.2
2023-03-21T15:01:20.635Z,10.1
2023-03-21T15:02:24.506Z,10.2
2023-03-21T15:03:27.730Z,10.1
2023-03-21T15:04:30.965Z,10.1
2023-03-21T15:05:34.091Z,10.1
2023-03-21T15:06:36.849Z,10.2
2023-03-21T15:07:40.859Z,10.2
2023-03-21T15:08:43.866Z,10.1
2023-03-21T15:09:47.368Z,10.1
2023-03-21T15:11:09.695Z,10.1
2023-03-21T15:12:14.126Z,10.1
2023-03-21T15:13:18.030Z,10.2
2023-03-21T15:14:21.127Z,10.2
2023-03-21T15:15:28.982Z,10.2
2023-03-21T15:16:32.979Z,10.2
2023-03-21T15:17:36.491Z,10.2
2023-03-21T15:18:40.237Z,10.2
2023-03-21T15:19:44.085Z,10.2
2023-03-21T15:20:47.360Z,10.2
2023-03-21T15:21:50.441Z,10.2
2023-03-21T15:22:53.813Z,10.3
2023-03-21T15:23:56.634Z,10.3
2023-03-21T15:25:00.037Z,10.3